createdAt,value
2018-03-01T00:01:11.534Z,-7.90
2018-03-01T00:03:37.929Z,-8.00
2018-03-01T00:06:04.363Z,-7.90
2018-03-01T00:08:30.800Z,-8.00
2018-03-01T00:10:57.212Z,-8.00
2018-03-01T00:13:23.594Z,-8.00
2018-03-01T00:15:50.032Z,-8.10
2018-03-01T00:18:16.489Z,-8.10
2018-03-01T00:20:42.957Z,-8.10
2018-03-01T00:23:09.371Z,-8.10
2018-03-01T00:25:35.813Z,-8.10
2018-03-01T00:28:02.229Z,-8.10
2018-03-01T00:30:28.726Z,-8.10
2018-03-01T00:32:55.933Z,-8.20
2018-03-01T00:35:22.325Z,-8.20
2018-03-01T00:37:48.728Z,-8.20
2018-03-01T00:40:15.954Z,-8.10
2018-03-01T00:42:42.363Z,-8.20
2018-03-01T00:45:09.240Z,-8.10
2018-03-01T00:47:35.653Z,-8.10
2018-03-01T00:50:02.076Z,-8.10
2018-03-01T00:52:29.254Z,-8.10
2018-03-01T00:54:55.711Z,-8.10
2018-03-01T00:57:22.119Z,-8.00
2018-03-01T00:59:49.249Z,-8.00
2018-03-01T01:02:15.658Z,-8.10
2018-03-01T01:04:42.035Z,-8.00
2018-03-01T01:07:08.481Z,-8.00
2018-03-01T01:09:34.878Z,-8.00
2018-03-01T01:12:01.300Z,-8.00
2018-03-01T01:14:28.522Z,-8.00
2018-03-01T01:16:55.190Z,-8.10
2018-03-01T01:19:21.578Z,-8.10
2018-03-01T01:21:48.746Z,-8.10
2018-03-01T01:24:15.938Z,-8.10
2018-03-01T01:26:42.449Z,-8.20
2018-03-01T01:29:08.968Z,-8.10
2018-03-01T01:31:36.170Z,-8.10
2018-03-01T01:34:03.345Z,-8.10
2018-03-01T01:36:29.766Z,-8.10
2018-03-01T01:38:56.950Z,-8.10
2018-03-01T01:41:23.370Z,-8.10
2018-03-01T01:43:50.561Z,-8.10
2018-03-01T01:46:17.002Z,-8.20
2018-03-01T01:48:43.734Z,-8.10
2018-03-01T01:51:10.884Z,-8.10
2018-03-01T01:53:37.416Z,-8.20
2018-03-01T01:56:03.828Z,-8.20
2018-03-01T01:58:30.294Z,-8.20
2018-03-01T02:00:56.724Z,-8.20
2018-03-01T02:03:23.178Z,-8.30
2018-03-01T02:05:50.367Z,-8.30
2018-03-01T02:08:16.757Z,-8.30
2018-03-01T02:10:43.177Z,-8.30
2018-03-01T02:13:09.609Z,-8.30
2018-03-01T02:15:36.072Z,-8.40
2018-03-01T02:18:02.492Z,-8.50
2018-03-01T02:20:28.961Z,-8.50
2018-03-01T02:22:56.099Z,-8.40
2018-03-01T02:25:23.289Z,-8.40
2018-03-01T02:27:49.812Z,-8.40
2018-03-01T02:30:25.442Z,-8.40
2018-03-01T02:32:51.936Z,-8.40
2018-03-01T02:35:19.110Z,-8.40
2018-03-01T02:37:45.573Z,-8.40
2018-03-01T02:40:12.201Z,-8.30
2018-03-01T02:42:38.642Z,-8.20
2018-03-01T02:45:05.734Z,-8.20
2018-03-01T02:50:13.011Z,-8.30
2018-03-01T02:52:39.534Z,-8.20
2018-03-01T02:55:06.572Z,-8.20
2018-03-01T02:57:33.014Z,-8.20
2018-03-01T02:59:59.418Z,-8.30
2018-03-01T03:02:25.840Z,-8.30
2018-03-01T03:04:52.311Z,-8.30
2018-03-01T03:07:18.819Z,-8.40
2018-03-01T03:09:45.227Z,-8.40
2018-03-01T03:12:11.688Z,-8.40
2018-03-01T03:14:38.128Z,-8.40
2018-03-01T03:17:04.547Z,-8.50
2018-03-01T03:19:30.998Z,-8.50
2018-03-01T03:21:57.437Z,-8.40
2018-03-01T03:24:23.871Z,-8.40
2018-03-01T03:26:50.803Z,-8.50
2018-03-01T03:29:17.962Z,-8.60
2018-03-01T03:31:44.412Z,-8.60
2018-03-01T03:34:11.609Z,-8.60
2018-03-01T03:36:38.079Z,-8.60
2018-03-01T03:39:04.570Z,-8.60
2018-03-01T03:41:31.787Z,-8.50
2018-03-01T03:43:59.019Z,-8.50
2018-03-01T03:46:25.448Z,-8.50
2018-03-01T03:48:52.399Z,-8.50
2018-03-01T03:51:19.606Z,-8.50
2018-03-01T03:53:46.811Z,-8.50
2018-03-01T03:56:13.263Z,-8.50
2018-03-01T03:58:39.716Z,-8.40
2018-03-01T04:01:06.307Z,-8.30
2018-03-01T04:03:32.793Z,-8.30
2018-03-01T04:05:59.353Z,-8.20
2018-03-01T04:08:25.863Z,-8.10
2018-03-01T04:10:53.143Z,-7.90
2018-03-01T04:13:19.580Z,-7.90
2018-03-01T04:15:46.766Z,-7.80
2018-03-01T04:18:13.236Z,-7.80
2018-03-01T04:20:39.690Z,-7.60
2018-03-01T04:23:06.386Z,-7.50
2018-03-01T04:25:32.852Z,-7.40
2018-03-01T04:28:00.054Z,-7.20
2018-03-01T04:30:26.703Z,-7.30
2018-03-01T04:32:53.173Z,-7.20
2018-03-01T04:35:20.662Z,-7.10
2018-03-01T04:37:47.809Z,-7.00
2018-03-01T04:40:14.242Z,-7.00
2018-03-01T04:42:41.454Z,-6.80
2018-03-01T04:45:08.537Z,-6.90
2018-03-01T04:47:34.989Z,-6.90
2018-03-01T04:50:01.524Z,-6.80
2018-03-01T04:52:27.999Z,-6.80
2018-03-01T04:54:54.442Z,-6.80
2018-03-01T04:57:20.847Z,-6.80
2018-03-01T04:59:47.267Z,-6.80
2018-03-01T05:02:13.728Z,-6.80
2018-03-01T05:04:40.160Z,-6.80
2018-03-01T05:07:06.587Z,-6.80
2018-03-01T05:09:33.811Z,-6.80
2018-03-01T05:12:00.255Z,-6.80
2018-03-01T05:14:27.492Z,-6.70
2018-03-01T05:16:53.970Z,-6.70
2018-03-01T05:19:21.928Z,-6.80
2018-03-01T05:21:48.431Z,-6.40
2018-03-01T05:24:21.880Z,-6.60
2018-03-01T05:26:49.191Z,-6.70
2018-03-01T05:29:16.256Z,-6.70
2018-03-01T05:31:42.757Z,-6.70
2018-03-01T05:34:10.151Z,-6.70
2018-03-01T05:36:36.631Z,-6.80
2018-03-01T05:39:03.118Z,-6.70
2018-03-01T05:41:29.698Z,-6.70
2018-03-01T05:43:56.205Z,-6.70
2018-03-01T05:46:22.729Z,-6.70
2018-03-01T05:48:49.963Z,-6.80
2018-03-01T05:51:16.463Z,-6.90
2018-03-01T05:53:42.955Z,-6.40
2018-03-01T05:56:09.609Z,-6.80
2018-03-01T05:58:36.169Z,-6.70
2018-03-01T06:01:02.832Z,-6.80
2018-03-01T06:03:29.459Z,-6.90
2018-03-01T06:05:56.152Z,-6.90
2018-03-01T06:08:22.759Z,-6.90
2018-03-01T06:10:49.356Z,-6.90
2018-03-01T06:13:16.591Z,-6.90
2018-03-01T06:15:44.607Z,-6.90
2018-03-01T06:18:11.266Z,-6.90
2018-03-01T06:20:37.840Z,-6.80
2018-03-01T06:23:04.606Z,-6.80
2018-03-01T06:25:31.326Z,-6.80
2018-03-01T06:27:57.890Z,-6.80
2018-03-01T06:30:25.145Z,-6.70
2018-03-01T06:32:52.690Z,-6.90
2018-03-01T06:35:19.255Z,-6.90
2018-03-01T06:37:46.711Z,-7.00
2018-03-01T06:40:13.293Z,-7.00
2018-03-01T06:42:39.890Z,-6.90
2018-03-01T06:45:07.836Z,-7.00
2018-03-01T06:47:34.575Z,-7.00
2018-03-01T06:50:01.899Z,-7.00
2018-03-01T06:52:28.733Z,-7.00
2018-03-01T06:54:55.291Z,-6.90
2018-03-01T06:57:21.956Z,-6.90
2018-03-01T06:59:48.479Z,-6.90
2018-03-01T07:02:15.063Z,-6.80
2018-03-01T07:04:41.598Z,-6.80
2018-03-01T07:07:08.159Z,-6.60
2018-03-01T07:09:35.137Z,-6.70
2018-03-01T07:12:02.551Z,-6.60
2018-03-01T07:14:29.103Z,-6.60
2018-03-01T07:16:56.570Z,-6.30
2018-03-01T07:19:23.574Z,-6.40
2018-03-01T07:21:50.514Z,-6.20
2018-03-01T07:24:17.164Z,-6.20
2018-03-01T07:26:43.787Z,-6.10
2018-03-01T07:29:10.574Z,-6.10
2018-03-01T07:31:37.227Z,-6.00
2018-03-01T07:34:04.897Z,-5.30
2018-03-01T07:36:31.446Z,-5.80
2018-03-01T07:38:58.133Z,-5.70
2018-03-01T07:41:24.708Z,-5.70
2018-03-01T07:43:51.215Z,-5.70
2018-03-01T07:46:17.790Z,-5.60
2018-03-01T07:48:44.454Z,-5.50
2018-03-01T07:51:11.027Z,-5.30
2018-03-01T07:53:38.435Z,-5.20
2018-03-01T07:56:05.021Z,-5.20
2018-03-01T07:58:32.722Z,-5.00
2018-03-01T08:01:01.941Z,-4.90
2018-03-01T08:03:28.645Z,-5.00
2018-03-01T08:05:55.249Z,-4.70
2018-03-01T08:08:21.753Z,-4.30
2018-03-01T08:10:49.295Z,-3.80
2018-03-01T08:13:16.865Z,-3.90
2018-03-01T08:15:43.617Z,-3.70
2018-03-01T08:18:10.231Z,-3.50
2018-03-01T08:20:36.775Z,-3.40
2018-03-01T08:23:03.668Z,-3.60
2018-03-01T08:25:30.936Z,-3.50
2018-03-01T08:27:58.295Z,-3.60
2018-03-01T08:30:24.828Z,-3.60
2018-03-01T08:32:52.147Z,-3.80
2018-03-01T08:35:18.687Z,-3.80
2018-03-01T08:37:45.201Z,-3.80
2018-03-01T08:40:12.262Z,-3.90
2018-03-01T08:42:38.775Z,-3.90
2018-03-01T08:45:05.984Z,-4.00
2018-03-01T08:47:32.730Z,-3.70
2018-03-01T08:50:00.067Z,-4.00
2018-03-01T08:52:26.543Z,-4.00
2018-03-01T08:54:53.178Z,-4.00
2018-03-01T08:57:20.545Z,-3.90
2018-03-01T08:59:47.046Z,-3.90
2018-03-01T09:02:13.948Z,-3.50
2018-03-01T09:04:41.295Z,-2.80
2018-03-01T09:07:08.569Z,-2.60
2018-03-01T09:09:35.886Z,-2.40
2018-03-01T09:12:02.460Z,-2.40
2018-03-01T09:14:29.079Z,-2.30
2018-03-01T09:16:55.581Z,-2.10
2018-03-01T09:19:22.086Z,-2.30
2018-03-01T09:21:48.532Z,-2.10
2018-03-01T09:24:15.207Z,-2.30
2018-03-01T09:26:41.663Z,-2.40
2018-03-01T09:29:08.986Z,-2.30
2018-03-01T09:31:35.574Z,-2.30
2018-03-01T09:34:03.141Z,-2.10
2018-03-01T09:36:29.669Z,-2.00
2018-03-01T09:38:57.032Z,-1.90
2018-03-01T09:41:23.558Z,-2.10
2018-03-01T09:43:50.114Z,-1.80
2018-03-01T09:46:17.648Z,-1.70
2018-03-01T09:48:44.243Z,-1.70
2018-03-01T09:51:11.662Z,-1.60
2018-03-01T09:53:38.645Z,-1.50
2018-03-01T09:56:05.988Z,-1.20
2018-03-01T09:58:33.287Z,-0.90
2018-03-01T10:01:00.850Z,-0.90
2018-03-01T10:03:28.151Z,0.00
2018-03-01T10:05:54.784Z,0.00
2018-03-01T10:08:22.835Z,0.50
2018-03-01T10:10:49.623Z,0.40
2018-03-01T10:13:16.241Z,1.10
2018-03-01T10:15:42.872Z,1.30
2018-03-01T10:18:09.412Z,1.50
2018-03-01T10:20:36.017Z,1.60
2018-03-01T10:23:04.375Z,1.80
2018-03-01T10:25:31.039Z,1.90
2018-03-01T10:27:58.353Z,1.80
2018-03-01T10:30:25.005Z,1.80
2018-03-01T10:32:51.617Z,1.90
2018-03-01T10:35:18.216Z,1.70
2018-03-01T10:37:45.523Z,2.00
2018-03-01T10:40:13.243Z,2.00
2018-03-01T10:42:40.038Z,2.10
2018-03-01T10:45:06.993Z,1.80
2018-03-01T10:47:34.336Z,1.90
2018-03-01T10:50:02.451Z,2.10
2018-03-01T10:52:29.175Z,2.00
2018-03-01T10:54:56.488Z,2.30
2018-03-01T10:57:23.824Z,2.30
2018-03-01T10:59:50.476Z,2.50
2018-03-01T11:02:17.779Z,2.90
2018-03-01T11:04:45.350Z,2.90
2018-03-01T11:07:12.123Z,2.80
2018-03-01T11:09:38.852Z,3.00
2018-03-01T11:12:06.388Z,2.30
2018-03-01T11:14:33.058Z,2.10
2018-03-01T11:16:59.601Z,2.00
2018-03-01T11:19:27.374Z,2.00
2018-03-01T11:21:54.660Z,1.50
2018-03-01T11:24:21.202Z,1.40
2018-03-01T11:26:47.823Z,1.30
2018-03-01T11:29:14.443Z,1.20
2018-03-01T11:31:41.168Z,1.10
2018-03-01T11:34:07.683Z,1.10
2018-03-01T11:36:34.949Z,1.30
2018-03-01T11:39:01.612Z,1.30
2018-03-01T11:41:28.731Z,2.00
2018-03-01T11:43:55.235Z,1.80
2018-03-01T11:46:21.974Z,2.10
2018-03-01T11:48:48.515Z,2.20
2018-03-01T11:51:15.035Z,2.50
2018-03-01T11:53:41.683Z,2.50
2018-03-01T11:56:08.303Z,2.60
2018-03-01T11:58:34.841Z,2.70
2018-03-01T12:01:02.476Z,3.00
2018-03-01T12:03:30.667Z,3.00
2018-03-01T12:05:57.244Z,3.00
2018-03-01T12:08:23.815Z,3.10
2018-03-01T12:10:50.272Z,3.10
2018-03-01T12:13:16.908Z,3.20
2018-03-01T12:15:44.133Z,3.20
2018-03-01T12:18:10.636Z,3.20
2018-03-01T12:20:37.258Z,3.20
2018-03-01T12:23:03.923Z,3.20
2018-03-01T12:25:30.408Z,3.30
2018-03-01T12:27:56.953Z,3.30
2018-03-01T12:30:23.511Z,3.30
2018-03-01T12:32:50.044Z,3.40
2018-03-01T12:35:16.580Z,3.20
2018-03-01T12:37:43.152Z,3.20
2018-03-01T12:40:10.024Z,3.10
2018-03-01T12:42:37.339Z,3.20
2018-03-01T12:45:04.366Z,3.10
2018-03-01T12:47:31.035Z,3.20
2018-03-01T12:49:57.970Z,3.20
2018-03-01T12:52:24.560Z,3.20
2018-03-01T12:54:51.132Z,3.30
2018-03-01T12:57:17.753Z,3.50
2018-03-01T12:59:45.046Z,3.60
2018-03-01T13:02:11.644Z,3.50
2018-03-01T13:04:39.340Z,3.70
2018-03-01T13:07:05.895Z,3.60
2018-03-01T13:09:32.467Z,3.50
2018-03-01T13:11:59.052Z,3.50
2018-03-01T13:14:25.633Z,3.60
2018-03-01T13:16:52.187Z,3.60
2018-03-01T13:19:18.889Z,3.60
2018-03-01T13:21:46.180Z,3.30
2018-03-01T13:24:13.122Z,3.30
2018-03-01T13:26:39.835Z,3.40
2018-03-01T13:29:06.586Z,3.50
2018-03-01T13:34:36.659Z,3.50
2018-03-01T13:37:03.304Z,3.50
2018-03-01T13:39:29.791Z,3.80
2018-03-01T13:41:56.384Z,3.50
2018-03-01T13:44:23.757Z,3.50
2018-03-01T13:46:55.317Z,3.40
2018-03-01T13:49:22.190Z,3.50
2018-03-01T13:51:48.874Z,3.50
2018-03-01T13:54:15.399Z,3.70
2018-03-01T13:56:42.787Z,3.90
2018-03-01T13:59:09.369Z,3.90
2018-03-01T14:01:36.057Z,4.00
2018-03-01T14:04:02.648Z,3.90
2018-03-01T14:06:44.806Z,3.70
2018-03-01T14:09:14.275Z,3.40
2018-03-01T14:11:40.883Z,3.40
2018-03-01T14:14:08.209Z,3.30
2018-03-01T14:16:35.488Z,2.90
2018-03-01T14:19:08.150Z,2.90
2018-03-01T14:21:40.791Z,2.90
2018-03-01T14:24:13.544Z,2.80
2018-03-01T14:26:42.035Z,2.80
2018-03-01T14:32:05.844Z,2.70
2018-03-01T14:34:33.139Z,2.60
2018-03-01T14:36:59.922Z,2.60
2018-03-01T14:39:26.423Z,2.70
2018-03-01T14:41:52.887Z,2.80
2018-03-01T14:44:19.367Z,2.90
2018-03-01T14:46:46.064Z,2.90
2018-03-01T14:49:13.319Z,3.00
2018-03-01T14:51:39.953Z,3.00
2018-03-01T14:54:06.541Z,3.00
2018-03-01T14:56:33.264Z,2.90
2018-03-01T14:58:59.825Z,2.80
2018-03-01T15:01:26.436Z,2.70
2018-03-01T15:03:53.001Z,2.70
2018-03-01T15:06:20.325Z,2.80
2018-03-01T15:08:47.595Z,2.90
2018-03-01T15:11:14.160Z,2.80
2018-03-01T15:13:41.461Z,2.60
2018-03-01T15:16:08.023Z,2.50
2018-03-01T15:18:34.524Z,2.30
2018-03-01T15:21:01.836Z,2.20
2018-03-01T15:23:28.460Z,2.10
2018-03-01T15:25:55.092Z,2.10
2018-03-01T15:28:21.609Z,2.10
2018-03-01T15:30:48.206Z,2.00
2018-03-01T15:33:15.508Z,1.90
2018-03-01T15:35:42.021Z,1.90
2018-03-01T15:38:08.508Z,1.90
2018-03-01T15:40:35.111Z,1.90
2018-03-01T15:43:01.659Z,1.80
2018-03-01T15:45:29.009Z,1.60
2018-03-01T15:47:55.626Z,1.60
2018-03-01T15:50:22.187Z,1.50
2018-03-01T15:52:49.484Z,1.20
2018-03-01T15:55:15.995Z,1.10
2018-03-01T15:57:42.561Z,1.10
2018-03-01T16:00:10.468Z,0.80
2018-03-01T16:02:37.035Z,0.80
2018-03-01T16:05:04.043Z,0.70
2018-03-01T16:07:30.557Z,0.50
2018-03-01T16:09:57.784Z,0.30
2018-03-01T16:12:24.998Z,0.30
2018-03-01T16:14:52.256Z,0.30
2018-03-01T16:17:18.763Z,0.30
2018-03-01T16:19:46.102Z,0.20
2018-03-01T16:22:19.642Z,0.20
2018-03-01T16:24:46.530Z,0.10
2018-03-01T16:27:12.978Z,0.00
2018-03-01T16:29:39.518Z,-0.10
2018-03-01T16:32:06.230Z,-0.20
2018-03-01T16:34:32.797Z,-0.20
2018-03-01T16:36:59.405Z,-0.30
2018-03-01T16:39:25.970Z,-0.30
2018-03-01T16:41:52.516Z,-0.50
2018-03-01T16:44:19.076Z,-0.50
2018-03-01T16:46:45.579Z,-0.70
2018-03-01T16:49:12.945Z,-0.90
2018-03-01T16:51:39.493Z,-1.00
2018-03-01T16:54:06.138Z,-1.00
2018-03-01T16:56:32.668Z,-1.10
2018-03-01T16:58:59.247Z,-1.20
2018-03-01T17:01:25.787Z,-1.30
2018-03-01T17:03:53.211Z,-1.40
2018-03-01T17:06:19.723Z,-1.40
2018-03-01T17:08:46.311Z,-1.50
2018-03-01T17:11:12.778Z,-1.60
2018-03-01T17:13:39.619Z,-1.70
2018-03-01T17:16:06.921Z,-1.80
2018-03-01T17:18:33.489Z,-1.90
2018-03-01T17:21:00.182Z,-1.90
2018-03-01T17:23:26.800Z,-2.00
2018-03-01T17:25:53.412Z,-2.00
2018-03-01T17:28:20.131Z,-2.00
2018-03-01T17:30:47.884Z,-2.00
2018-03-01T17:33:14.458Z,-2.00
2018-03-01T17:35:41.622Z,-2.00
2018-03-01T17:38:09.019Z,-2.10
2018-03-01T17:40:35.559Z,-2.10
2018-03-01T17:43:02.160Z,-2.10
2018-03-01T17:45:29.549Z,-2.30
2018-03-01T17:47:56.942Z,-2.30
2018-03-01T17:50:23.602Z,-2.40
2018-03-01T17:52:50.088Z,-2.30
2018-03-01T17:55:17.311Z,-2.40
2018-03-01T17:57:43.762Z,-2.50
2018-03-01T18:00:11.016Z,-2.40
2018-03-01T18:02:38.302Z,-2.40
2018-03-01T18:05:05.179Z,-2.50
2018-03-01T18:07:31.623Z,-2.50
2018-03-01T18:09:58.052Z,-2.50
2018-03-01T18:12:24.460Z,-2.60
2018-03-01T18:14:50.905Z,-2.60
2018-03-01T18:17:18.107Z,-2.60
2018-03-01T18:19:44.496Z,-2.60
2018-03-01T18:22:11.702Z,-2.50
2018-03-01T18:24:38.139Z,-2.50
2018-03-01T18:27:04.663Z,-2.40
2018-03-01T18:29:31.108Z,-2.40
2018-03-01T18:31:57.784Z,-2.40
2018-03-01T18:34:24.272Z,-2.40
2018-03-01T18:36:50.760Z,-2.40
2018-03-01T18:39:17.387Z,-2.50
2018-03-01T18:41:44.132Z,-2.50
2018-03-01T18:44:11.392Z,-2.60
2018-03-01T18:46:37.919Z,-2.60
2018-03-01T18:49:04.427Z,-2.60
2018-03-01T18:51:30.956Z,-2.60
2018-03-01T18:53:57.472Z,-2.70
2018-03-01T18:56:24.204Z,-2.70
2018-03-01T18:58:50.771Z,-2.70
2018-03-01T19:01:17.994Z,-2.70
2018-03-01T19:03:44.471Z,-2.70
2018-03-01T19:06:10.968Z,-2.70
2018-03-01T19:08:37.476Z,-2.70
2018-03-01T19:11:04.699Z,-2.80
2018-03-01T19:13:31.959Z,-2.80
2018-03-01T19:15:58.568Z,-2.80
2018-03-01T19:18:25.140Z,-2.90
2018-03-01T19:20:51.586Z,-2.90
2018-03-01T19:23:18.815Z,-2.90
2018-03-01T19:25:45.278Z,-2.90
2018-03-01T19:28:11.791Z,-3.00
2018-03-01T19:30:39.213Z,-3.00
2018-03-01T19:33:05.697Z,-3.50
2018-03-01T19:35:32.913Z,-3.00
2018-03-01T19:38:00.224Z,-3.10
2018-03-01T19:40:26.829Z,-3.10
2018-03-01T19:42:53.539Z,-3.10
2018-03-01T19:45:19.982Z,-3.10
2018-03-01T19:47:46.486Z,-3.10
2018-03-01T19:50:13.022Z,-3.20
2018-03-01T19:52:39.447Z,-3.20
2018-03-01T19:55:06.410Z,-3.20
2018-03-01T19:57:32.842Z,-3.20
2018-03-01T19:59:59.298Z,-3.20
2018-03-01T20:02:26.383Z,-3.20
2018-03-01T20:04:52.995Z,-3.20
2018-03-01T20:07:19.423Z,-3.20
2018-03-01T20:09:47.389Z,-3.30
2018-03-01T20:12:13.869Z,-3.20
2018-03-01T20:14:41.145Z,-3.20
2018-03-01T20:17:07.692Z,-3.30
2018-03-01T20:19:34.200Z,-3.30
2018-03-01T20:22:00.826Z,-3.20
2018-03-01T20:24:27.316Z,-3.40
2018-03-01T20:26:54.214Z,-3.40
2018-03-01T20:29:20.683Z,-4.60
2018-03-01T20:31:47.179Z,-3.50
2018-03-01T20:34:13.644Z,-3.60
2018-03-01T20:36:40.096Z,-3.60
2018-03-01T20:39:06.647Z,-3.50
2018-03-01T20:41:33.145Z,-3.60
2018-03-01T20:43:59.588Z,-3.60
2018-03-01T20:46:26.028Z,-3.60
2018-03-01T20:48:52.685Z,-3.70
2018-03-01T20:51:19.167Z,-3.70
2018-03-01T20:53:45.694Z,-3.80
2018-03-01T20:56:12.172Z,-3.80
2018-03-01T20:58:38.653Z,-3.80
2018-03-01T21:01:05.231Z,-3.80
2018-03-01T21:03:32.465Z,-3.80
2018-03-01T21:05:58.964Z,-3.80
2018-03-01T21:08:26.187Z,-3.90
2018-03-01T21:10:52.676Z,-3.90
2018-03-01T21:13:19.190Z,-3.90
2018-03-01T21:15:45.764Z,-3.90
2018-03-01T21:18:12.313Z,-3.90
2018-03-01T21:20:38.940Z,-4.00
2018-03-01T21:23:05.382Z,-4.00
2018-03-01T21:25:32.668Z,-4.10
2018-03-01T21:27:59.222Z,-4.10
2018-03-01T21:30:25.714Z,-4.10
2018-03-01T21:32:52.367Z,-4.10
2018-03-01T21:35:18.967Z,-4.20
2018-03-01T21:37:45.576Z,-4.20
2018-03-01T21:40:13.584Z,-4.20
2018-03-01T21:42:40.156Z,-4.20
2018-03-01T21:45:07.887Z,-4.20
2018-03-01T21:47:34.455Z,-4.30
2018-03-01T21:50:01.715Z,-4.30
2018-03-01T21:52:28.265Z,-4.30
2018-03-01T21:54:54.812Z,-4.30
2018-03-01T21:57:21.264Z,-4.20
2018-03-01T21:59:48.479Z,-4.20
2018-03-01T22:02:15.039Z,-4.30
2018-03-01T22:04:41.609Z,-4.20
2018-03-01T22:07:08.919Z,-4.30
2018-03-01T22:09:36.079Z,-4.30
2018-03-01T22:12:02.591Z,-3.90
2018-03-01T22:14:29.132Z,-4.30
2018-03-01T22:16:55.572Z,-4.30
2018-03-01T22:19:22.061Z,-4.10
2018-03-01T22:21:48.505Z,-4.40
2018-03-01T22:24:15.675Z,-4.60
2018-03-01T22:26:42.178Z,-4.70
2018-03-01T22:29:09.394Z,-4.70
2018-03-01T22:31:36.008Z,-4.60
2018-03-01T22:34:02.559Z,-4.70
2018-03-01T22:36:29.719Z,-4.70
2018-03-01T22:38:56.236Z,-4.70
2018-03-01T22:41:22.669Z,-4.70
2018-03-01T22:43:49.118Z,-4.30
2018-03-01T22:46:15.546Z,-4.70
2018-03-01T22:48:42.130Z,-4.50
2018-03-01T22:51:08.539Z,-4.70
2018-03-01T22:53:35.018Z,-4.40
2018-03-01T22:56:01.463Z,-4.80
2018-03-01T22:58:27.989Z,-4.90
2018-03-01T23:00:55.379Z,-4.90
2018-03-01T23:03:21.799Z,-5.00
2018-03-01T23:05:48.268Z,-4.50
2018-03-01T23:08:14.669Z,-5.00
2018-03-01T23:10:41.126Z,-4.90
2018-03-01T23:13:08.299Z,-5.00
2018-03-01T23:15:34.741Z,-5.00
2018-03-01T23:18:01.191Z,-5.00
2018-03-01T23:20:28.394Z,-5.10
2018-03-01T23:22:55.589Z,-5.10
2018-03-01T23:25:22.118Z,-5.10
2018-03-01T23:27:49.263Z,-5.00
2018-03-01T23:30:16.435Z,-5.10
2018-03-01T23:32:42.951Z,-5.10
2018-03-01T23:35:09.478Z,-5.00
2018-03-01T23:37:35.905Z,-5.10
2018-03-01T23:40:02.685Z,-5.30
2018-03-01T23:42:29.219Z,-5.20
2018-03-01T23:44:55.655Z,-5.20
2018-03-01T23:47:22.119Z,-5.20
2018-03-01T23:49:48.753Z,-5.10
2018-03-01T23:52:15.151Z,-4.80
2018-03-01T23:54:42.295Z,-5.10
2018-03-01T23:57:08.711Z,-5.20
2018-03-01T23:59:35.207Z,-4.90
